createdAt,value
2019-05-22T00:02:38.281Z,100.00
2019-05-22T00:05:15.028Z,100.00
2019-05-22T00:07:44.785Z,100.00
2019-05-22T00:10:19.064Z,100.00
2019-05-22T00:12:49.294Z,99.37
2019-05-22T00:15:20.921Z,99.22
2019-05-22T00:17:51.178Z,99.05
2019-05-22T00:20:23.540Z,98.90
2019-05-22T00:22:53.943Z,98.75
2019-05-22T00:25:26.625Z,98.76
2019-05-22T00:27:55.479Z,98.85
2019-05-22T00:30:27.606Z,98.77
2019-05-22T00:32:57.647Z,98.59
2019-05-22T00:35:27.041Z,98.41
2019-05-22T00:37:56.401Z,98.40
2019-05-22T00:40:27.554Z,98.16
2019-05-22T00:43:04.110Z,98.02
2019-05-22T00:45:30.923Z,97.82
2019-05-22T00:48:00.106Z,97.80
2019-05-22T00:50:33.972Z,98.13
2019-05-22T00:53:23.490Z,97.73
2019-05-22T00:56:16.630Z,97.81
2019-05-22T00:58:53.221Z,98.11
2019-05-22T01:01:28.869Z,98.11
2019-05-22T01:03:58.385Z,97.64
2019-05-22T01:06:28.952Z,97.68
2019-05-22T01:08:59.621Z,97.84
2019-05-22T01:11:29.699Z,97.66
2019-05-22T01:13:58.357Z,97.52
2019-05-22T01:16:27.438Z,97.10
2019-05-22T01:18:57.732Z,97.10
2019-05-22T01:21:26.661Z,96.86
2019-05-22T01:23:59.971Z,97.17
2019-05-22T01:26:29.867Z,97.22
2019-05-22T01:28:59.077Z,97.24
2019-05-22T01:31:37.690Z,97.46
2019-05-22T01:34:12.312Z,97.57
2019-05-22T01:37:00.107Z,97.74
2019-05-22T01:39:39.370Z,97.42
2019-05-22T01:42:13.082Z,97.19
2019-05-22T01:44:59.856Z,97.10
2019-05-22T01:47:20.801Z,96.97
2019-05-22T01:49:52.232Z,96.87
2019-05-22T01:52:23.398Z,97.42
2019-05-22T01:54:54.909Z,97.19
2019-05-22T01:57:24.402Z,97.35
2019-05-22T01:59:53.550Z,97.59
2019-05-22T02:02:25.544Z,97.49
2019-05-22T02:04:54.610Z,97.45
2019-05-22T02:07:24.121Z,97.39
2019-05-22T02:09:52.824Z,97.56
2019-05-22T02:12:32.376Z,97.77
2019-05-22T02:15:01.388Z,97.41
2019-05-22T02:17:33.489Z,97.21
2019-05-22T02:20:04.283Z,97.55
2019-05-22T02:22:34.260Z,97.27
2019-05-22T02:25:03.325Z,97.25
2019-05-22T02:27:33.884Z,96.84
2019-05-22T02:30:04.438Z,96.36
2019-05-22T02:32:35.232Z,96.06
2019-05-22T02:35:05.374Z,95.70
2019-05-22T02:37:35.291Z,95.99
2019-05-22T02:40:05.408Z,95.79
2019-05-22T02:42:34.812Z,95.75
2019-05-22T02:45:05.250Z,95.75
2019-05-22T02:47:34.245Z,95.66
2019-05-22T02:50:05.220Z,95.68
2019-05-22T02:52:34.573Z,95.73
2019-05-22T02:55:04.591Z,95.59
2019-05-22T02:57:34.098Z,95.41
2019-05-22T03:00:03.210Z,95.36
2019-05-22T03:02:34.029Z,95.20
2019-05-22T03:05:07.300Z,95.12
2019-05-22T03:07:38.016Z,95.25
2019-05-22T03:10:10.234Z,95.31
2019-05-22T03:12:41.688Z,94.99
2019-05-22T03:15:13.977Z,94.73
2019-05-22T03:17:45.061Z,95.02
2019-05-22T03:20:18.515Z,95.05
2019-05-22T03:23:10.404Z,95.52
2019-05-22T03:25:40.021Z,95.26
2019-05-22T03:28:09.827Z,95.14
2019-05-22T03:30:40.608Z,95.12
2019-05-22T03:33:10.453Z,94.96
2019-05-22T03:35:43.927Z,95.18
2019-05-22T03:38:13.753Z,95.30
2019-05-22T03:40:42.867Z,95.14
2019-05-22T03:43:20.770Z,95.17
2019-05-22T03:45:51.129Z,94.98
2019-05-22T03:48:21.344Z,94.66
2019-05-22T03:50:52.398Z,94.81
2019-05-22T03:53:21.053Z,94.64
2019-05-22T03:55:51.103Z,94.05
2019-05-22T03:58:20.707Z,93.98
2019-05-22T04:00:51.906Z,94.20
2019-05-22T04:03:21.356Z,94.21
2019-05-22T04:05:52.465Z,94.61
2019-05-22T04:08:24.264Z,94.76
2019-05-22T04:11:00.121Z,94.94
2019-05-22T04:13:28.862Z,95.51
2019-05-22T04:15:58.759Z,95.75
2019-05-22T04:18:28.333Z,95.87
2019-05-22T04:20:57.815Z,96.07
2019-05-22T04:23:26.450Z,96.55
2019-05-22T04:25:56.574Z,96.40
2019-05-22T04:28:26.038Z,95.91
2019-05-22T04:30:59.703Z,96.26
2019-05-22T04:33:27.302Z,96.06
2019-05-22T04:35:56.915Z,96.15
2019-05-22T04:38:26.961Z,95.63
2019-05-22T04:40:58.154Z,95.40
2019-05-22T04:43:30.865Z,95.46
2019-05-22T04:46:00.856Z,95.37
2019-05-22T04:48:31.621Z,96.49
2019-05-22T04:51:19.955Z,96.35
2019-05-22T04:53:49.155Z,96.26
2019-05-22T04:56:18.045Z,96.96
2019-05-22T04:58:47.043Z,96.90
2019-05-22T05:01:15.740Z,96.74
2019-05-22T05:03:44.430Z,96.25
2019-05-22T05:06:13.075Z,96.63
2019-05-22T05:08:42.576Z,96.90
2019-05-22T05:11:11.289Z,96.66
2019-05-22T05:13:40.747Z,96.96
2019-05-22T05:16:09.738Z,97.02
2019-05-22T05:18:38.816Z,96.93
2019-05-22T05:21:08.810Z,96.94
2019-05-22T05:23:37.794Z,96.35
2019-05-22T05:26:07.198Z,96.38
2019-05-22T05:28:36.807Z,97.45
2019-05-22T05:31:06.225Z,97.80
2019-05-22T05:33:43.507Z,97.51
2019-05-22T05:36:13.284Z,97.76
2019-05-22T05:38:42.516Z,97.55
2019-05-22T05:41:11.581Z,97.44
2019-05-22T05:43:40.687Z,97.35
2019-05-22T05:46:09.383Z,96.99
2019-05-22T05:48:40.242Z,97.10
2019-05-22T05:51:39.141Z,96.98
2019-05-22T05:54:15.172Z,96.99
2019-05-22T05:56:48.455Z,96.73
2019-05-22T05:59:18.892Z,96.40
2019-05-22T06:01:51.499Z,96.79
2019-05-22T06:04:34.826Z,96.61
2019-05-22T06:07:17.380Z,96.77
2019-05-22T06:09:50.425Z,96.75
2019-05-22T06:12:19.918Z,96.73
2019-05-22T06:14:49.262Z,96.86
2019-05-22T06:18:00.989Z,96.61
2019-05-22T06:20:31.653Z,97.05
2019-05-22T06:23:44.836Z,96.94
2019-05-22T06:26:38.453Z,96.83
2019-05-22T06:29:08.120Z,96.51
2019-05-22T06:31:50.282Z,96.97
2019-05-22T06:34:18.989Z,97.07
2019-05-22T06:36:47.947Z,96.30
2019-05-22T06:39:16.726Z,95.64
2019-05-22T06:41:47.155Z,95.79
2019-05-22T06:44:35.054Z,95.88
2019-05-22T06:47:06.056Z,95.92
2019-05-22T06:50:09.538Z,95.81
2019-05-22T06:52:38.635Z,95.46
2019-05-22T06:55:07.629Z,95.42
2019-05-22T06:57:36.621Z,95.18
2019-05-22T07:00:24.707Z,95.67
2019-05-22T07:02:53.575Z,95.27
2019-05-22T07:05:24.133Z,95.50
2019-05-22T07:07:52.768Z,95.79
2019-05-22T07:10:22.187Z,95.90
2019-05-22T07:12:51.783Z,95.97
2019-05-22T07:15:50.375Z,96.10
2019-05-22T07:18:21.003Z,96.17
2019-05-22T07:20:50.507Z,96.21
2019-05-22T07:23:23.084Z,96.13
2019-05-22T07:25:52.716Z,96.15
2019-05-22T07:28:22.686Z,95.39
2019-05-22T07:30:52.637Z,94.90
2019-05-22T07:33:22.540Z,95.25
2019-05-22T07:36:08.523Z,94.97
2019-05-22T07:38:22.278Z,94.62
2019-05-22T07:40:51.989Z,94.50
2019-05-22T07:43:21.652Z,94.72
2019-05-22T07:45:52.910Z,95.09
2019-05-22T07:48:24.503Z,94.94
2019-05-22T07:50:54.755Z,94.91
2019-05-22T07:53:25.758Z,94.48
2019-05-22T07:55:55.523Z,94.74
2019-05-22T07:58:26.048Z,94.81
2019-05-22T08:00:56.582Z,94.74
2019-05-22T08:03:25.454Z,95.45
2019-05-22T08:05:56.230Z,95.36
2019-05-22T08:08:26.989Z,95.67
2019-05-22T08:10:57.243Z,95.39
2019-05-22T08:13:27.112Z,95.55
2019-05-22T08:15:56.159Z,95.75
2019-05-22T08:18:25.917Z,95.86
2019-05-22T08:20:54.852Z,95.36
2019-05-22T08:23:24.649Z,95.71
2019-05-22T08:25:54.039Z,95.67
2019-05-22T08:28:24.734Z,95.01
2019-05-22T08:30:53.343Z,94.98
2019-05-22T08:33:23.888Z,94.56
2019-05-22T08:35:52.615Z,94.52
2019-05-22T08:38:28.982Z,94.81
2019-05-22T08:40:59.648Z,95.34
2019-05-22T08:43:28.882Z,95.02
2019-05-22T08:45:57.772Z,94.50
2019-05-22T08:48:27.006Z,94.62
2019-05-22T08:50:57.188Z,94.52
2019-05-22T08:53:26.086Z,94.64
2019-05-22T08:55:56.098Z,93.60
2019-05-22T08:58:25.607Z,93.77
2019-05-22T09:00:54.596Z,93.38
2019-05-22T09:03:23.334Z,93.33
2019-05-22T09:05:52.514Z,93.48
2019-05-22T09:08:22.338Z,92.96
2019-05-22T09:10:51.014Z,92.63
2019-05-22T09:13:19.644Z,92.78
2019-05-22T09:15:50.506Z,93.26
2019-05-22T09:18:20.016Z,93.27
2019-05-22T09:20:49.914Z,94.15
2019-05-22T09:23:20.152Z,93.59
2019-05-22T09:25:49.351Z,94.05
2019-05-22T09:28:18.345Z,94.23
2019-05-22T09:30:47.343Z,95.27
2019-05-22T09:33:16.050Z,94.92
2019-05-22T09:35:45.022Z,94.96
2019-05-22T09:38:13.730Z,95.57
2019-05-22T09:40:42.797Z,95.28
2019-05-22T09:43:11.712Z,95.12
2019-05-22T09:45:40.446Z,95.38
2019-05-22T09:48:10.086Z,95.84
2019-05-22T09:50:40.001Z,95.49
2019-05-22T09:53:09.167Z,94.72
2019-05-22T09:55:38.814Z,95.04
2019-05-22T09:58:08.564Z,95.19
2019-05-22T10:00:37.842Z,94.82
2019-05-22T10:03:06.929Z,94.63
2019-05-22T10:05:36.060Z,94.29
2019-05-22T10:08:05.535Z,94.80
2019-05-22T10:10:34.267Z,95.01
2019-05-22T10:13:03.816Z,95.55
2019-05-22T10:15:33.321Z,95.34
2019-05-22T10:18:02.142Z,95.00
2019-05-22T10:20:31.633Z,95.42
2019-05-22T10:23:14.942Z,95.07
2019-05-22T10:25:32.159Z,94.54
2019-05-22T10:28:00.829Z,93.88
2019-05-22T10:30:29.714Z,94.20
2019-05-22T10:32:58.744Z,94.55
2019-05-22T10:35:29.985Z,93.80
2019-05-22T10:37:58.973Z,94.09
2019-05-22T10:40:28.376Z,94.38
2019-05-22T10:42:57.886Z,94.17
2019-05-22T10:45:27.800Z,93.67
2019-05-22T10:47:57.961Z,93.81
2019-05-22T10:50:27.108Z,93.69
2019-05-22T10:52:56.902Z,93.73
2019-05-22T10:55:26.230Z,93.67
2019-05-22T10:57:55.200Z,93.74
2019-05-22T11:00:25.125Z,93.78
2019-05-22T11:02:54.440Z,94.20
2019-05-22T11:05:23.751Z,94.28
2019-05-22T11:07:52.940Z,93.93
2019-05-22T11:10:24.318Z,92.92
2019-05-22T11:12:53.700Z,92.76
2019-05-22T11:15:23.503Z,92.19
2019-05-22T11:17:53.771Z,91.43
2019-05-22T11:20:24.059Z,91.61
2019-05-22T11:22:53.458Z,91.42
2019-05-22T11:25:22.685Z,91.16
2019-05-22T11:27:52.057Z,91.94
2019-05-22T11:30:21.479Z,91.97
2019-05-22T11:32:50.864Z,92.46
2019-05-22T11:35:19.926Z,92.10
2019-05-22T11:37:48.956Z,92.33
2019-05-22T11:40:18.971Z,92.69
2019-05-22T11:42:48.069Z,92.98
2019-05-22T11:45:16.849Z,92.28
2019-05-22T11:47:45.647Z,92.47
2019-05-22T11:50:15.433Z,92.08
2019-05-22T11:52:44.669Z,92.48
2019-05-22T11:55:14.511Z,91.16
2019-05-22T11:57:43.550Z,91.58
2019-05-22T12:00:13.267Z,91.17
2019-05-22T12:02:42.383Z,91.61
2019-05-22T12:05:12.897Z,91.18
2019-05-22T12:07:43.846Z,91.53
2019-05-22T12:10:14.583Z,90.91
2019-05-22T12:12:45.422Z,90.77
2019-05-22T12:15:15.945Z,90.83
2019-05-22T12:17:44.901Z,90.77
2019-05-22T12:20:14.112Z,91.47
2019-05-22T12:22:43.710Z,91.82
2019-05-22T12:25:14.185Z,91.25
2019-05-22T12:27:42.897Z,91.28
2019-05-22T12:30:12.329Z,91.22
2019-05-22T12:32:42.300Z,91.65
2019-05-22T12:35:12.566Z,91.41
2019-05-22T12:37:42.273Z,91.40
2019-05-22T12:40:13.092Z,90.72
2019-05-22T12:42:42.163Z,91.41
2019-05-22T12:45:12.951Z,91.84
2019-05-22T12:47:43.315Z,91.79
2019-05-22T12:50:14.384Z,91.40
2019-05-22T12:52:47.166Z,91.06
2019-05-22T12:55:17.146Z,91.17
2019-05-22T12:57:47.019Z,90.92
2019-05-22T13:00:17.564Z,91.12
2019-05-22T13:02:46.900Z,91.09
2019-05-22T13:05:15.964Z,90.99
2019-05-22T13:07:45.813Z,90.72
2019-05-22T13:10:16.877Z,90.44
2019-05-22T13:12:45.954Z,90.98
2019-05-22T13:15:15.045Z,90.76
2019-05-22T13:17:44.036Z,90.95
2019-05-22T13:20:16.000Z,90.90
2019-05-22T13:22:47.980Z,90.33
2019-05-22T13:25:19.929Z,90.36
2019-05-22T13:27:49.028Z,90.27
2019-05-22T13:30:18.323Z,89.70
2019-05-22T13:32:47.235Z,90.17
2019-05-22T13:35:16.922Z,89.94
2019-05-22T13:37:45.558Z,89.41
2019-05-22T13:40:27.100Z,89.03
2019-05-22T13:42:44.956Z,89.17
2019-05-22T13:45:28.558Z,89.23
2019-05-22T13:47:45.555Z,89.13
2019-05-22T13:50:15.811Z,89.31
2019-05-22T13:52:44.952Z,88.78
2019-05-22T13:55:14.708Z,88.40
2019-05-22T13:57:43.603Z,89.12
2019-05-22T14:00:15.774Z,88.19
2019-05-22T14:02:44.768Z,88.16
2019-05-22T14:05:14.135Z,87.82
2019-05-22T14:07:43.215Z,87.88
2019-05-22T14:10:12.265Z,88.14
2019-05-22T14:12:41.556Z,87.81
2019-05-22T14:15:11.027Z,87.54
2019-05-22T14:17:39.857Z,87.44
2019-05-22T14:20:08.876Z,87.40
2019-05-22T14:22:38.253Z,86.99
2019-05-22T14:25:08.076Z,86.29
2019-05-22T14:27:41.269Z,86.46
2019-05-22T14:30:07.585Z,85.62
2019-05-22T14:32:37.197Z,86.29
2019-05-22T14:35:06.663Z,86.97
2019-05-22T14:37:36.126Z,86.51
2019-05-22T14:40:05.931Z,86.26
2019-05-22T14:42:35.015Z,86.50
2019-05-22T14:45:04.109Z,86.78
2019-05-22T14:47:32.824Z,86.18
2019-05-22T14:50:01.547Z,86.47
2019-05-22T14:52:30.580Z,86.46
2019-05-22T14:54:59.571Z,86.49
2019-05-22T14:57:28.375Z,86.35
2019-05-22T14:59:58.077Z,86.27
2019-05-22T15:02:26.814Z,86.10
2019-05-22T15:04:56.570Z,85.75
2019-05-22T15:07:25.639Z,85.57
2019-05-22T15:09:54.359Z,85.45
2019-05-22T15:12:23.445Z,85.54
2019-05-22T15:14:52.185Z,85.85
2019-05-22T15:17:31.864Z,85.29
2019-05-22T15:19:51.646Z,85.68
2019-05-22T15:22:20.277Z,84.59
2019-05-22T15:24:49.733Z,84.49
2019-05-22T15:27:19.256Z,84.36
2019-05-22T15:29:48.257Z,85.14
2019-05-22T15:32:18.162Z,85.46
2019-05-22T15:34:47.667Z,84.92
2019-05-22T15:37:19.638Z,84.36
2019-05-22T15:39:48.591Z,84.70
2019-05-22T15:42:38.531Z,84.60
2019-05-22T15:45:12.166Z,84.14
2019-05-22T15:47:54.436Z,84.95
2019-05-22T15:50:16.143Z,85.21
2019-05-22T15:52:49.790Z,84.81
2019-05-22T15:55:21.399Z,84.74
2019-05-22T15:58:03.965Z,84.71
2019-05-22T16:00:37.985Z,84.20
2019-05-22T16:03:52.721Z,84.24
2019-05-22T16:06:29.670Z,84.57
2019-05-22T16:09:01.992Z,84.07
2019-05-22T16:11:49.674Z,84.15
2019-05-22T16:15:55.504Z,83.61
2019-05-22T16:17:28.169Z,83.28
2019-05-22T16:20:15.587Z,82.88
2019-05-22T16:25:12.929Z,83.43
2019-05-22T16:27:48.409Z,82.93
2019-05-22T16:30:18.381Z,82.46
2019-05-22T16:32:51.845Z,83.06
2019-05-22T16:35:23.144Z,82.61
2019-05-22T16:37:53.856Z,81.88
2019-05-22T16:40:23.992Z,81.00
2019-05-22T16:42:53.386Z,79.97
2019-05-22T16:45:24.116Z,78.90
2019-05-22T16:47:53.997Z,75.62
2019-05-22T16:50:22.672Z,74.10
2019-05-22T16:52:51.708Z,75.46
2019-05-22T16:55:22.442Z,77.38
2019-05-22T16:57:51.497Z,77.84
2019-05-22T17:00:21.305Z,77.49
2019-05-22T17:02:50.547Z,77.89
2019-05-22T17:05:20.957Z,76.92
2019-05-22T17:07:50.567Z,76.63
2019-05-22T17:10:20.431Z,74.95
2019-05-22T17:12:57.177Z,72.62
2019-05-22T17:15:29.392Z,70.48
2019-05-22T17:17:59.498Z,70.91
2019-05-22T17:20:58.334Z,71.63
2019-05-22T17:23:39.831Z,71.31
2019-05-22T17:26:14.782Z,70.70
2019-05-22T17:29:02.817Z,69.81
2019-05-22T17:31:43.626Z,70.28
2019-05-22T17:34:33.329Z,71.63
2019-05-22T17:37:15.475Z,70.83
2019-05-22T17:39:46.734Z,70.88
2019-05-22T17:42:18.360Z,72.40
2019-05-22T17:48:46.543Z,71.35
2019-05-22T17:57:34.295Z,71.17
2019-05-22T18:00:05.869Z,71.72
2019-05-22T18:02:36.189Z,72.54
2019-05-22T18:05:07.236Z,73.39
2019-05-22T18:07:36.982Z,72.92
2019-05-22T18:10:06.361Z,73.74
2019-05-22T18:12:35.275Z,73.71
2019-05-22T18:15:06.378Z,72.60
2019-05-22T18:17:43.718Z,73.12
2019-05-22T18:20:16.193Z,73.27
2019-05-22T18:22:46.369Z,73.47
2019-05-22T18:25:16.807Z,73.89
2019-05-22T18:27:46.143Z,73.55
2019-05-22T18:30:14.993Z,73.93
2019-05-22T18:32:43.803Z,74.67
2019-05-22T18:35:17.401Z,74.83
2019-05-22T18:37:46.406Z,74.99
2019-05-22T18:40:16.569Z,75.42
2019-05-22T18:42:46.150Z,75.57
2019-05-22T18:45:15.909Z,75.80
2019-05-22T18:47:45.084Z,76.33
2019-05-22T18:50:14.114Z,76.60
2019-05-22T18:52:47.831Z,76.40
2019-05-22T18:55:17.463Z,76.23
2019-05-22T18:57:46.751Z,76.86
2019-05-22T19:00:17.660Z,77.04
2019-05-22T19:02:46.615Z,76.96
2019-05-22T19:05:17.191Z,76.79
2019-05-22T19:07:46.395Z,76.82
2019-05-22T19:10:16.084Z,77.27
2019-05-22T19:12:45.443Z,77.25
2019-05-22T19:15:14.514Z,77.66
2019-05-22T19:17:43.517Z,78.27
2019-05-22T19:20:12.248Z,78.36
2019-05-22T19:22:56.727Z,78.30
2019-05-22T19:25:11.971Z,78.49
2019-05-22T19:27:40.879Z,78.79
2019-05-22T19:30:10.671Z,78.75
2019-05-22T19:32:39.936Z,79.00
2019-05-22T19:35:10.268Z,79.09
2019-05-22T19:37:39.075Z,79.15
2019-05-22T19:40:10.608Z,79.27
2019-05-22T19:42:40.112Z,79.22
2019-05-22T19:45:10.579Z,79.71
2019-05-22T19:47:44.976Z,79.99
2019-05-22T19:50:22.893Z,79.66
2019-05-22T19:52:45.249Z,80.24
2019-05-22T19:55:16.823Z,80.73
2019-05-22T19:57:46.058Z,80.70
2019-05-22T20:00:15.269Z,81.75
2019-05-22T20:02:44.758Z,82.45
2019-05-22T20:05:14.262Z,82.84
2019-05-22T20:07:42.907Z,82.35
2019-05-22T20:10:11.799Z,82.55
2019-05-22T20:12:41.118Z,83.27
2019-05-22T20:15:11.265Z,83.24
2019-05-22T20:17:39.987Z,83.49
2019-05-22T20:20:10.756Z,84.41
2019-05-22T20:22:40.397Z,84.29
2019-05-22T20:25:10.069Z,84.62
2019-05-22T20:27:39.802Z,84.74
2019-05-22T20:30:09.933Z,84.88
2019-05-22T20:32:39.750Z,84.82
2019-05-22T20:35:09.460Z,85.00
2019-05-22T20:37:39.031Z,84.51
2019-05-22T20:40:08.327Z,84.67
2019-05-22T20:42:37.981Z,84.30
2019-05-22T20:45:08.400Z,84.41
2019-05-22T20:47:37.496Z,83.94
2019-05-22T20:50:06.786Z,83.53
2019-05-22T20:52:36.618Z,83.82
2019-05-22T20:55:06.861Z,83.93
2019-05-22T20:57:35.895Z,84.00
2019-05-22T21:00:06.612Z,83.94
2019-05-22T21:02:36.171Z,84.97
2019-05-22T21:05:06.716Z,84.52
2019-05-22T21:07:40.011Z,84.54
2019-05-22T21:10:09.017Z,84.67
2019-05-22T21:12:39.615Z,84.74
2019-05-22T21:15:08.568Z,84.83
2019-05-22T21:17:38.267Z,85.47
2019-05-22T21:20:07.556Z,85.62
2019-05-22T21:22:37.093Z,85.96
2019-05-22T21:25:07.254Z,85.94
2019-05-22T21:27:38.331Z,86.61
2019-05-22T21:30:08.817Z,86.21
2019-05-22T21:32:37.927Z,86.05
2019-05-22T21:35:08.189Z,85.95
2019-05-22T21:37:37.702Z,85.89
2019-05-22T21:40:07.504Z,86.01
2019-05-22T21:42:39.810Z,85.86
2019-05-22T21:45:10.978Z,86.09
2019-05-22T21:47:40.177Z,86.11
2019-05-22T21:50:10.224Z,85.88
2019-05-22T21:52:39.700Z,86.02
2019-05-22T21:55:09.606Z,85.51
2019-05-22T21:57:40.656Z,85.40
2019-05-22T22:00:14.577Z,85.63
2019-05-22T22:02:46.825Z,84.93
2019-05-22T22:05:16.239Z,85.13
2019-05-22T22:07:45.669Z,84.66
2019-05-22T22:10:14.862Z,84.78
2019-05-22T22:12:44.579Z,84.52
2019-05-22T22:15:15.393Z,84.64
2019-05-22T22:17:44.039Z,84.42
2019-05-22T22:20:13.074Z,84.60
2019-05-22T22:22:41.807Z,84.87
2019-05-22T22:25:13.014Z,85.07
2019-05-22T22:27:42.200Z,85.26
2019-05-22T22:30:23.961Z,85.37
2019-05-22T22:32:53.605Z,85.49
2019-05-22T22:35:22.612Z,85.65
2019-05-22T22:37:52.104Z,86.30
2019-05-22T22:40:24.428Z,86.29
2019-05-22T22:42:54.228Z,86.41
2019-05-22T22:45:41.250Z,86.93
2019-05-22T22:48:10.607Z,87.50
2019-05-22T22:50:40.631Z,87.48
2019-05-22T22:53:10.904Z,87.32
2019-05-22T22:55:40.262Z,87.37
2019-05-22T22:58:16.968Z,87.72
2019-05-22T23:00:43.295Z,87.98
2019-05-22T23:03:13.271Z,88.27
2019-05-22T23:05:43.920Z,88.38
2019-05-22T23:08:16.175Z,88.75
2019-05-22T23:10:46.273Z,88.96
2019-05-22T23:13:16.022Z,89.14
2019-05-22T23:15:46.842Z,89.48
2019-05-22T23:18:31.474Z,89.66
2019-05-22T23:20:58.862Z,89.79
2019-05-22T23:23:26.219Z,90.27
2019-05-22T23:25:56.147Z,90.32
2019-05-22T23:28:34.651Z,90.22
2019-05-22T23:30:56.773Z,90.51
2019-05-22T23:33:27.208Z,90.19
2019-05-22T23:35:56.313Z,89.92
2019-05-22T23:38:26.134Z,89.62
2019-05-22T23:40:55.423Z,89.86
2019-05-22T23:43:25.194Z,89.61
2019-05-22T23:45:54.960Z,89.98
2019-05-22T23:48:24.456Z,89.48
2019-05-22T23:50:53.450Z,89.17
2019-05-22T23:53:24.392Z,89.44
2019-05-22T23:55:54.107Z,89.55
2019-05-22T23:58:25.650Z,89.65
